Kary, South Dakota
Current Conditions -  °F | °C
As of 3:53 PM on Monday 20 Oct 2014 (Local Time) from KPIR Reporting Station
Clear Clear  
Wind Chill: 75°   Ceiling: Unl
Heat Index: 75°   Visibility: 10mi
Dew Point: 38°   Wind: 17mph
Humidity: 26%   Direction: 150°SSE
Pressure: 29.97"   Gusts: NA
Location:  43.9557°N, 100.703°W
Report Text: KPIR 202053Z AUTO 15015KT 10SM CLR 24/03 A2997 RMK AO2 SLP147 T02390033 56028
Loading
Personal Weather Stations






























Interactive Weather Map
Tropical Storm Tracking
New forecast layout! Learn more

10-Day Weather Forecast

Advertisements
Track Severe Weather on mobile